createdAt,value
2022-11-01T00:00:10.396Z,36.90
2022-11-01T00:03:15.201Z,32.25
2022-11-01T00:06:17.434Z,37.58
2022-11-01T00:09:19.709Z,39.70
2022-11-01T00:12:21.873Z,35.47
2022-11-01T00:15:24.046Z,33.65
2022-11-01T00:18:26.763Z,37.17
2022-11-01T00:21:29.126Z,35.25
2022-11-01T00:24:31.676Z,34.53
2022-11-01T00:27:33.961Z,35.20
2022-11-01T00:30:37.468Z,36.92
2022-11-01T00:33:39.880Z,35.30
2022-11-01T00:36:42.241Z,34.83
2022-11-01T00:39:44.403Z,40.03
2022-11-01T00:42:46.551Z,36.53
2022-11-01T00:45:48.908Z,37.47
2022-11-01T00:48:51.150Z,41.15
2022-11-01T00:51:53.378Z,41.65
2022-11-01T00:54:55.517Z,41.42
2022-11-01T00:57:57.909Z,38.50
2022-11-01T01:01:00.294Z,36.10
2022-11-01T01:04:02.581Z,39.30
2022-11-01T01:07:04.708Z,38.25
2022-11-01T01:10:07.943Z,33.17
2022-11-01T01:13:10.141Z,35.27
2022-11-01T01:16:12.646Z,34.55
2022-11-01T01:19:14.813Z,33.58
2022-11-01T01:22:17.069Z,38.50
2022-11-01T01:25:20.968Z,34.63
2022-11-01T01:28:23.197Z,27.87
2022-11-01T01:31:25.317Z,32.78
2022-11-01T01:34:27.535Z,33.33
2022-11-01T01:37:29.702Z,35.35
2022-11-01T01:40:32.876Z,37.90
2022-11-01T01:43:43.511Z,35.03
2022-11-01T01:46:46.419Z,32.70
2022-11-01T01:49:51.328Z,28.98
2022-11-01T01:53:10.510Z,32.75
2022-11-01T01:56:14.945Z,32.00
2022-11-01T01:59:17.116Z,31.07
2022-11-01T02:02:20.397Z,32.22
2022-11-01T02:05:44.126Z,32.80
2022-11-01T02:08:50.133Z,36.45
2022-11-01T02:11:52.645Z,33.40
2022-11-01T02:14:55.783Z,35.57
2022-11-01T02:18:15.503Z,34.22
2022-11-01T02:21:38.315Z,31.23
2022-11-01T02:24:52.725Z,33.45
2022-11-01T02:28:45.994Z,27.52
2022-11-01T02:32:15.851Z,34.03
2022-11-01T02:35:31.600Z,30.33
2022-11-01T02:38:42.422Z,33.15
2022-11-01T02:42:04.881Z,29.80
2022-11-01T02:45:29.643Z,31.25
2022-11-01T02:48:31.898Z,35.37
2022-11-01T02:51:35.187Z,37.65
2022-11-01T02:54:44.369Z,35.42
2022-11-01T02:57:46.938Z,36.55
2022-11-01T03:00:49.272Z,36.75
2022-11-01T03:03:52.369Z,42.10
2022-11-01T03:06:58.758Z,36.15
2022-11-01T03:10:01.251Z,35.28
2022-11-01T03:13:27.360Z,32.45
2022-11-01T03:16:35.586Z,29.70
2022-11-01T03:19:54.957Z,33.23
2022-11-01T03:22:58.889Z,30.63
2022-11-01T03:26:02.088Z,29.30
2022-11-01T03:29:07.428Z,29.35
2022-11-01T03:32:09.842Z,31.88
2022-11-01T03:35:17.007Z,29.73
2022-11-01T03:38:21.656Z,25.10
2022-11-01T03:41:26.069Z,27.98
2022-11-01T03:44:33.278Z,31.08
2022-11-01T03:47:39.425Z,27.40
2022-11-01T03:50:47.819Z,28.10
2022-11-01T03:53:50.214Z,26.02
2022-11-01T03:56:52.494Z,24.95
2022-11-01T03:59:54.621Z,30.95
2022-11-01T04:02:58.255Z,31.95
2022-11-01T04:06:00.566Z,28.90
2022-11-01T04:09:02.955Z,28.40
2022-11-01T04:12:05.512Z,26.50
2022-11-01T04:15:26.530Z,27.90
2022-11-01T04:18:50.345Z,28.52
2022-11-01T04:21:52.473Z,26.53
2022-11-01T04:24:54.584Z,30.08
2022-11-01T04:27:56.957Z,26.63
2022-11-01T04:30:59.317Z,29.00
2022-11-01T04:34:04.329Z,30.48
2022-11-01T04:37:06.715Z,27.00
2022-11-01T04:40:09.793Z,32.63
2022-11-01T04:43:13.059Z,29.33
2022-11-01T04:46:16.081Z,28.48
2022-11-01T04:49:18.217Z,27.70
2022-11-01T04:52:20.480Z,23.53
2022-11-01T04:55:22.642Z,22.77
2022-11-01T04:58:24.791Z,25.23
2022-11-01T05:01:27.039Z,25.20
2022-11-01T05:04:29.348Z,24.45
2022-11-01T05:07:31.489Z,23.77
2022-11-01T05:10:34.842Z,21.88
2022-11-01T05:13:37.172Z,22.88
2022-11-01T05:16:39.430Z,23.30
2022-11-01T05:19:41.600Z,23.95
2022-11-01T05:22:43.746Z,21.23
2022-11-01T05:25:46.102Z,22.38
2022-11-01T05:28:48.389Z,21.13
2022-11-01T05:31:50.554Z,23.25
2022-11-01T05:34:52.752Z,22.67
2022-11-01T05:37:55.409Z,24.10
2022-11-01T05:40:57.553Z,21.77
2022-11-01T05:43:59.702Z,23.88
2022-11-01T05:47:05.656Z,21.33
2022-11-01T05:50:09.105Z,21.63
2022-11-01T05:53:11.246Z,23.97
2022-11-01T05:56:13.644Z,21.33
2022-11-01T05:59:16.288Z,22.33
2022-11-01T06:02:18.515Z,20.92
2022-11-01T06:05:20.675Z,20.88
2022-11-01T06:08:22.881Z,18.97
2022-11-01T06:11:27.055Z,19.13
2022-11-01T06:14:29.466Z,17.15
2022-11-01T06:17:31.650Z,15.77
2022-11-01T06:20:34.320Z,17.05
2022-11-01T06:23:37.277Z,14.80
2022-11-01T06:26:39.611Z,15.93
2022-11-01T06:29:41.987Z,16.13
2022-11-01T06:32:44.176Z,15.50
2022-11-01T06:35:46.350Z,15.02
2022-11-01T06:38:49.017Z,13.57
2022-11-01T06:41:51.803Z,15.15
2022-11-01T06:44:54.175Z,16.05
2022-11-01T06:47:56.475Z,17.52
2022-11-01T06:50:58.711Z,17.15
2022-11-01T06:54:00.951Z,16.80
2022-11-01T06:57:03.189Z,16.85
2022-11-01T07:00:06.563Z,15.45
2022-11-01T07:03:11.830Z,17.35
2022-11-01T07:06:14.582Z,15.02
2022-11-01T07:09:16.702Z,16.50
2022-11-01T07:12:18.959Z,15.38
2022-11-01T07:15:21.099Z,16.23
2022-11-01T07:18:23.515Z,19.73
2022-11-01T07:21:25.674Z,16.73
2022-11-01T07:24:27.812Z,17.93
2022-11-01T07:27:30.008Z,15.65
2022-11-01T07:30:32.621Z,17.15
2022-11-01T07:33:35.109Z,16.88
2022-11-01T07:36:37.315Z,16.40
2022-11-01T07:39:39.460Z,17.90
2022-11-01T07:42:43.169Z,13.43
2022-11-01T07:45:46.104Z,17.90
2022-11-01T07:48:51.383Z,16.27
2022-11-01T07:51:56.900Z,15.90
2022-11-01T07:55:01.505Z,17.07
2022-11-01T07:58:04.936Z,15.50
2022-11-01T08:01:07.505Z,16.60
2022-11-01T08:04:09.861Z,14.25
2022-11-01T08:07:12.050Z,14.85
2022-11-01T08:10:15.130Z,15.90
2022-11-01T08:13:22.467Z,14.18
2022-11-01T08:16:24.624Z,14.45
2022-11-01T08:19:26.790Z,13.55
2022-11-01T08:22:29.092Z,15.55
2022-11-01T08:25:31.604Z,14.03
2022-11-01T08:28:33.835Z,13.52
2022-11-01T08:31:41.328Z,17.33
2022-11-01T08:34:43.502Z,17.55
2022-11-01T08:37:52.386Z,21.08
2022-11-01T08:40:55.361Z,21.80
2022-11-01T08:43:57.845Z,24.58
2022-11-01T08:47:01.723Z,21.52
2022-11-01T08:50:05.996Z,22.85
2022-11-01T08:53:13.169Z,19.40
2022-11-01T08:56:15.286Z,19.47
2022-11-01T08:59:17.516Z,19.38
2022-11-01T09:02:20.039Z,17.92
2022-11-01T09:05:22.687Z,17.95
2022-11-01T09:08:24.863Z,19.63
2022-11-01T09:11:27.213Z,17.93
2022-11-01T09:14:29.397Z,17.30
2022-11-01T09:17:32.124Z,21.85
2022-11-01T09:20:34.431Z,18.60
2022-11-01T09:23:37.570Z,18.42
2022-11-01T09:26:39.908Z,18.70
2022-11-01T09:29:44.247Z,17.58
2022-11-01T09:32:48.810Z,18.05
2022-11-01T09:35:56.700Z,19.50
2022-11-01T09:39:01.535Z,20.02
2022-11-01T09:42:06.424Z,18.07
2022-11-01T09:45:17.092Z,18.60
2022-11-01T09:48:20.082Z,18.60
2022-11-01T09:51:24.403Z,22.92
2022-11-01T09:54:27.011Z,18.58
2022-11-01T09:57:35.818Z,22.70
2022-11-01T10:00:41.956Z,22.30
2022-11-01T10:04:11.836Z,21.10
2022-11-01T10:07:17.107Z,21.85
2022-11-01T10:10:33.977Z,46.88
2022-11-01T10:13:49.972Z,20.67
2022-11-01T10:17:04.465Z,20.50
2022-11-01T10:20:09.510Z,26.58
2022-11-01T10:23:16.070Z,22.77
2022-11-01T10:26:23.632Z,21.48
2022-11-01T10:29:36.170Z,22.23
2022-11-01T10:32:41.059Z,23.02
2022-11-01T10:35:51.999Z,21.30
2022-11-01T10:42:41.665Z,20.27
2022-11-01T10:45:47.579Z,18.57
2022-11-01T10:49:01.938Z,22.13
2022-11-01T10:52:07.671Z,19.85
2022-11-01T10:55:14.132Z,21.33
2022-11-01T10:58:31.786Z,21.55
2022-11-01T11:01:39.367Z,23.10
2022-11-01T11:04:41.644Z,22.58
2022-11-01T11:07:44.246Z,25.20
2022-11-01T11:10:46.811Z,21.25
2022-11-01T11:13:52.424Z,23.90
2022-11-01T11:16:57.626Z,24.63
2022-11-01T11:20:04.525Z,28.60
2022-11-01T11:23:10.374Z,21.27
2022-11-01T11:26:16.880Z,27.13
2022-11-01T11:29:34.262Z,26.08
2022-11-01T11:32:40.920Z,22.80
2022-11-01T11:35:56.241Z,22.88
2022-11-01T11:39:00.245Z,25.02
2022-11-01T11:42:20.089Z,25.17
2022-11-01T11:45:24.081Z,36.53
2022-11-01T11:48:26.235Z,21.33
2022-11-01T11:51:29.891Z,25.25
2022-11-01T11:54:37.558Z,23.77
2022-11-01T11:57:39.694Z,21.38
2022-11-01T12:00:44.041Z,23.55
2022-11-01T12:03:49.745Z,21.50
2022-11-01T12:06:51.941Z,24.70
2022-11-01T12:09:55.580Z,24.33
2022-11-01T12:12:58.202Z,22.38
2022-11-01T12:16:30.232Z,18.08
2022-11-01T12:19:32.521Z,21.30
2022-11-01T12:22:35.065Z,21.05
2022-11-01T12:25:38.534Z,23.13
2022-11-01T12:28:44.453Z,22.83
2022-11-01T12:31:48.583Z,23.83
2022-11-01T12:34:51.004Z,21.50
2022-11-01T12:38:17.941Z,21.60
2022-11-01T12:41:38.503Z,22.05
2022-11-01T12:44:43.721Z,20.75
2022-11-01T12:47:48.899Z,22.20
2022-11-01T12:51:21.100Z,27.50
2022-11-01T12:54:29.406Z,24.50
2022-11-01T12:57:33.523Z,22.33
2022-11-01T13:01:13.785Z,21.90
2022-11-01T13:04:31.899Z,20.05
2022-11-01T13:07:47.117Z,21.13
2022-11-01T13:10:50.311Z,23.15
2022-11-01T13:14:34.370Z,21.27
2022-11-01T13:17:54.473Z,21.02
2022-11-01T13:21:12.910Z,19.83
2022-11-01T13:24:50.714Z,20.70
2022-11-01T13:28:12.975Z,21.25
2022-11-01T13:31:28.046Z,23.67
2022-11-01T13:34:46.401Z,20.45
2022-11-01T13:37:58.710Z,18.92
2022-11-01T13:41:38.769Z,23.40
2022-11-01T13:44:48.517Z,19.45
2022-11-01T13:47:57.346Z,22.60
2022-11-01T13:51:26.039Z,23.88
2022-11-01T13:54:44.386Z,22.27
2022-11-01T13:57:47.791Z,19.50
2022-11-01T14:00:52.590Z,21.20
2022-11-01T14:04:17.226Z,23.27
2022-11-01T14:07:20.418Z,21.20
2022-11-01T14:10:29.455Z,20.95
2022-11-01T14:13:33.679Z,21.53
2022-11-01T14:16:36.203Z,23.10
2022-11-01T14:19:38.424Z,21.23
2022-11-01T14:22:45.089Z,21.55
2022-11-01T14:25:47.761Z,20.52
2022-11-01T14:28:51.624Z,21.27
2022-11-01T14:31:54.415Z,22.08
2022-11-01T14:35:00.315Z,21.45
2022-11-01T14:38:06.983Z,24.98
2022-11-01T14:41:09.807Z,21.77
2022-11-01T14:44:19.720Z,21.47
2022-11-01T14:47:35.562Z,22.20
2022-11-01T14:50:47.431Z,24.20
2022-11-01T14:53:56.669Z,22.85
2022-11-01T14:57:00.068Z,24.83
2022-11-01T15:00:26.712Z,26.27
2022-11-01T15:03:29.805Z,23.83
2022-11-01T15:06:32.392Z,25.45
2022-11-01T15:09:34.569Z,25.40
2022-11-01T15:12:47.485Z,27.38
2022-11-01T15:16:01.910Z,25.30
2022-11-01T15:19:06.590Z,24.15
2022-11-01T15:22:15.774Z,27.88
2022-11-01T15:25:26.488Z,27.15
2022-11-01T15:28:37.034Z,23.25
2022-11-01T15:31:50.185Z,21.27
2022-11-01T15:34:54.917Z,23.75
2022-11-01T15:37:57.994Z,25.33
2022-11-01T15:41:19.408Z,24.88
2022-11-01T15:44:30.799Z,22.73
2022-11-01T15:47:35.305Z,22.27
2022-11-01T15:50:39.693Z,25.52
2022-11-01T15:53:43.134Z,23.35
2022-11-01T15:56:50.516Z,25.08
2022-11-01T16:00:18.137Z,24.90
2022-11-01T16:03:25.701Z,30.50
2022-11-01T16:06:39.965Z,23.38
2022-11-01T16:09:45.783Z,26.45
2022-11-01T16:12:48.413Z,28.60
2022-11-01T16:16:18.248Z,25.33
2022-11-01T16:19:37.027Z,26.80
2022-11-01T16:22:42.569Z,24.83
2022-11-01T16:25:44.856Z,30.55
2022-11-01T16:28:47.399Z,36.83
2022-11-01T16:32:09.534Z,29.25
2022-11-01T16:35:33.769Z,56.40
2022-11-01T16:38:39.867Z,61.65
2022-11-01T16:41:42.320Z,56.90
2022-11-01T16:44:45.572Z,42.45
2022-11-01T16:47:47.705Z,35.55
2022-11-01T16:50:51.292Z,37.60
2022-11-01T16:53:57.969Z,43.03
2022-11-01T16:57:03.182Z,40.85
2022-11-01T17:00:12.310Z,40.85
2022-11-01T17:03:16.132Z,38.60
2022-11-01T17:06:19.360Z,41.93
2022-11-01T17:09:22.815Z,42.25
2022-11-01T17:12:25.477Z,47.22
2022-11-01T17:15:34.634Z,42.40
2022-11-01T17:18:40.656Z,38.83
2022-11-01T17:21:47.451Z,30.37
2022-11-01T17:24:49.942Z,35.20
2022-11-01T17:27:53.313Z,36.85
2022-11-01T17:30:55.889Z,34.25
2022-11-01T17:33:59.952Z,31.02
2022-11-01T17:37:02.542Z,30.10
2022-11-01T17:40:16.129Z,31.88
2022-11-01T17:43:19.328Z,27.58
2022-11-01T17:46:26.066Z,32.75
2022-11-01T17:49:28.770Z,31.52
2022-11-01T17:52:31.483Z,30.87
2022-11-01T17:55:37.967Z,26.80
2022-11-01T17:58:44.876Z,30.63
2022-11-01T18:01:51.897Z,29.73
2022-11-01T18:04:54.654Z,28.23
2022-11-01T18:07:56.970Z,28.10
2022-11-01T18:11:27.605Z,30.85
2022-11-01T18:14:32.913Z,33.10
2022-11-01T18:17:49.177Z,29.95
2022-11-01T18:21:19.680Z,29.90
2022-11-01T18:24:42.426Z,31.20
2022-11-01T18:27:45.648Z,31.83
2022-11-01T18:30:55.831Z,34.80
2022-11-01T18:34:27.814Z,30.80
2022-11-01T18:37:47.602Z,27.92
2022-11-01T18:41:02.004Z,32.87
2022-11-01T18:44:10.160Z,32.08
2022-11-01T18:47:19.307Z,31.95
2022-11-01T18:50:24.865Z,34.63
2022-11-01T18:53:28.213Z,33.60
2022-11-01T18:56:31.594Z,32.83
2022-11-01T18:59:43.452Z,31.75
2022-11-01T19:02:46.244Z,29.85
2022-11-01T19:05:49.544Z,33.65
2022-11-01T19:08:57.215Z,34.92
2022-11-01T19:12:13.846Z,31.90
2022-11-01T19:15:29.627Z,31.95
2022-11-01T19:18:32.281Z,34.65
2022-11-01T19:21:36.187Z,35.58
2022-11-01T19:24:40.421Z,46.80
2022-11-01T19:27:44.624Z,56.00
2022-11-01T19:30:50.931Z,42.35
2022-11-01T19:33:56.057Z,42.03
2022-11-01T19:36:58.918Z,36.05
2022-11-01T19:40:01.594Z,35.88
2022-11-01T19:43:19.213Z,34.70
2022-11-01T19:46:21.504Z,32.03
2022-11-01T19:49:30.548Z,30.10
2022-11-01T19:52:37.832Z,27.65
2022-11-01T19:55:46.564Z,27.75
2022-11-01T19:58:55.780Z,38.77
2022-11-01T20:01:59.121Z,30.10
2022-11-01T20:05:04.272Z,27.35
2022-11-01T20:08:34.507Z,26.35
2022-11-01T20:11:36.814Z,24.45
2022-11-01T20:14:39.096Z,21.97
2022-11-01T20:17:41.643Z,21.85
2022-11-01T20:20:46.974Z,22.55
2022-11-01T20:23:49.349Z,21.33
2022-11-01T20:26:52.049Z,24.05
2022-11-01T20:29:54.630Z,24.30
2022-11-01T20:32:56.961Z,21.75
2022-11-01T20:35:59.530Z,25.75
2022-11-01T20:39:02.115Z,25.65
2022-11-01T20:42:04.786Z,30.85
2022-11-01T20:45:07.553Z,29.30
2022-11-01T20:48:13.940Z,30.73
2022-11-01T20:51:16.208Z,28.60
2022-11-01T20:54:18.511Z,24.17
2022-11-01T20:57:28.039Z,25.73
2022-11-01T21:00:32.231Z,24.30
2022-11-01T21:03:34.834Z,24.08
2022-11-01T21:06:37.242Z,27.02
2022-11-01T21:09:43.839Z,23.27
2022-11-01T21:12:49.653Z,22.38
2022-11-01T21:15:53.598Z,21.20
2022-11-01T21:19:01.250Z,26.08
2022-11-01T21:22:04.454Z,20.98
2022-11-01T21:25:20.834Z,25.40
2022-11-01T21:28:42.523Z,23.00
2022-11-01T21:31:44.756Z,21.83
2022-11-01T21:34:48.238Z,21.50
2022-11-01T21:37:53.604Z,28.10
2022-11-01T21:40:56.493Z,24.80
2022-11-01T21:44:15.196Z,28.15
2022-11-01T21:47:17.610Z,24.07
2022-11-01T21:50:19.832Z,26.95
2022-11-01T21:53:22.725Z,24.13
2022-11-01T21:56:25.711Z,26.15
2022-11-01T21:59:28.569Z,27.88
2022-11-01T22:02:30.843Z,27.63
2022-11-01T22:05:33.093Z,28.63
2022-11-01T22:08:35.287Z,27.13
2022-11-01T22:11:37.679Z,27.92
2022-11-01T22:14:39.830Z,30.17
2022-11-01T22:17:42.017Z,28.77
2022-11-01T22:20:44.182Z,25.65
2022-11-01T22:23:46.464Z,27.95
2022-11-01T22:26:48.597Z,32.33
2022-11-01T22:29:50.742Z,29.30
2022-11-01T22:32:52.889Z,28.03
2022-11-01T22:35:55.525Z,28.10
2022-11-01T22:38:59.143Z,27.70
2022-11-01T22:42:01.343Z,27.73
2022-11-01T22:45:13.064Z,24.30
2022-11-01T22:48:21.085Z,26.07
2022-11-01T22:51:27.368Z,27.95
2022-11-01T22:54:34.318Z,29.90
2022-11-01T22:57:50.255Z,28.58
2022-11-01T23:00:52.458Z,29.55
2022-11-01T23:03:54.637Z,30.97
2022-11-01T23:07:02.322Z,27.75
2022-11-01T23:10:07.365Z,33.75
2022-11-01T23:13:31.050Z,30.98
2022-11-01T23:16:36.133Z,29.25
2022-11-01T23:22:41.989Z,30.77
2022-11-01T23:25:44.158Z,36.22
2022-11-01T23:28:49.021Z,33.03
2022-11-01T23:31:51.236Z,31.83
2022-11-01T23:35:06.887Z,33.67
2022-11-01T23:38:21.743Z,40.90
2022-11-01T23:41:26.366Z,41.90
2022-11-01T23:44:37.503Z,40.13
2022-11-01T23:47:40.313Z,36.03
2022-11-01T23:50:42.922Z,35.23
2022-11-01T23:53:47.687Z,41.33
2022-11-01T23:56:50.072Z,39.75
2022-11-01T23:59:52.964Z,35.00
